Time;durP1;ratioP1;P1;durP2;ratioP2;P2;SDS_P1;SDS_P2;PMS_P1;PMS_P2;Temp;Humidity;BMP_temperature;BMP_pressure;BME280_temperature;BME280_humidity;BME280_pressure;Samples;Min_cycle;Max_cycle;Signal;HPM_P1;HPM_P2
2023/06/07 00:01:52;;;;;;;13.60;10.43;;;;;;;;;;5055690;28;20029;-79
2023/06/07 00:04:17;;;;;;;12.63;10.65;;;;;;;;;;5037889;28;20260;-78
2023/06/07 00:06:43;;;;;;;16.77;10.97;;;;;;;;;;5037377;28;20037;-78
2023/06/07 00:09:09;;;;;;;13.88;11.82;;;;;;;;;;5037693;28;20265;-79
2023/06/07 00:11:35;;;;;;;14.93;10.43;;;;;;;;;;5054863;28;20511;-77
2023/06/07 00:14:00;;;;;;;16.05;11.55;;;;;;;;;;5053574;28;20086;-76
2023/06/07 00:16:26;;;;;;;14.20;11.57;;;;;;;;;;5035871;28;20017;-77
2023/06/07 00:18:52;;;;;;;15.93;11.48;;;;;;;;;;5053651;28;20025;-78
2023/06/07 00:21:19;;;;;;;16.15;11.77;;;;;;;;;;5053349;28;20024;-77
2023/06/07 00:23:45;;;;;;;14.07;10.93;;;;;;;;;;5034977;28;20025;-76
2023/06/07 00:26:11;;;;;;;15.15;11.40;;;;;;;;;;5053140;28;20025;-77
2023/06/07 00:28:36;;;;;;;14.80;11.83;;;;;;;;;;5052924;28;20073;-77
2023/06/07 00:31:01;;;;;;;18.37;11.13;;;;;;;;;;5054645;28;20296;-77
2023/06/07 00:33:26;;;;;;;18.52;10.68;;;;;;;;;;5052463;28;20274;-76
2023/06/07 00:35:52;;;;;;;13.43;11.30;;;;;;;;;;5052703;28;20483;-77
2023/06/07 00:38:17;;;;;;;16.90;10.60;;;;;;;;;;5035021;28;20028;-77
2023/06/07 00:40:42;;;;;;;14.48;11.23;;;;;;;;;;5034841;28;20268;-77
2023/06/07 00:43:07;;;;;;;11.68;10.43;;;;;;;;;;5053815;28;20029;-77
2023/06/07 00:45:33;;;;;;;12.40;10.27;;;;;;;;;;5054276;28;20492;-78
2023/06/07 00:47:58;;;;;;;15.80;12.20;;;;;;;;;;5054123;28;20802;-78
2023/06/07 00:50:24;;;;;;;14.60;11.13;;;;;;;;;;5054522;28;20585;-78
2023/06/07 00:52:50;;;;;;;17.30;11.85;;;;;;;;;;5053941;28;20087;-77
2023/06/07 00:55:16;;;;;;;15.75;10.98;;;;;;;;;;5054092;28;20070;-78
2023/06/07 00:57:41;;;;;;;14.43;11.38;;;;;;;;;;5054116;28;20032;-77
2023/06/07 01:00:13;;;;;;;15.48;11.77;;;;;;;;;;5053665;28;20027;-77
2023/06/07 01:02:41;;;;;;;14.32;11.55;;;;;;;;;;5052976;28;20025;-77
2023/06/07 01:05:07;;;;;;;13.90;11.18;;;;;;;;;;5035158;28;20029;-78
2023/06/07 01:07:32;;;;;;;17.42;11.68;;;;;;;;;;5053792;28;20033;-78
2023/06/07 01:09:59;;;;;;;14.68;11.70;;;;;;;;;;5054178;28;20032;-78
2023/06/07 01:12:26;;;;;;;15.27;11.95;;;;;;;;;;5053076;28;20033;-77
2023/06/07 01:14:53;;;;;;;18.02;11.02;;;;;;;;;;5053380;28;20116;-78
2023/06/07 01:17:24;;;;;;;15.32;11.52;;;;;;;;;;5054003;28;20056;-79
2023/06/07 01:19:51;;;;;;;15.07;11.65;;;;;;;;;;5036607;28;20108;-78
2023/06/07 01:22:20;;;;;;;15.32;11.52;;;;;;;;;;5054629;28;20032;-78
2023/06/07 01:24:47;;;;;;;13.45;11.93;;;;;;;;;;5054303;28;20055;-79
2023/06/07 01:27:13;;;;;;;15.20;12.00;;;;;;;;;;5054465;28;20025;-78
2023/06/07 01:29:39;;;;;;;15.73;12.30;;;;;;;;;;5054303;28;20112;-78
2023/06/07 01:32:08;;;;;;;16.60;11.90;;;;;;;;;;5054674;28;20056;-78
2023/06/07 01:34:34;;;;;;;14.40;12.48;;;;;;;;;;5036537;28;20428;-78
2023/06/07 01:37:00;;;;;;;14.45;12.52;;;;;;;;;;5036703;28;20032;-78
2023/06/07 01:39:26;;;;;;;15.95;11.95;;;;;;;;;;5054628;28;20101;-78
2023/06/07 01:41:52;;;;;;;15.40;12.23;;;;;;;;;;5054084;28;20063;-79
2023/06/07 01:44:18;;;;;;;18.02;12.68;;;;;;;;;;5054370;28;20021;-78
2023/06/07 01:46:44;;;;;;;18.55;12.60;;;;;;;;;;5055978;28;20498;-78
2023/06/07 01:49:09;;;;;;;14.25;12.73;;;;;;;;;;5039548;28;20040;-78
2023/06/07 01:51:35;;;;;;;20.38;13.02;;;;;;;;;;5057961;28;20056;-78
2023/06/07 01:54:01;;;;;;;17.65;12.63;;;;;;;;;;5057201;28;20025;-77
2023/06/07 01:56:40;;;;;;;14.93;12.60;;;;;;;;;;5057447;28;20392;-78
2023/06/07 01:59:18;;;;;;;16.67;13.02;;;;;;;;;;5039602;28;20029;-78
2023/06/07 02:02:07;;;;;;;16.83;12.23;;;;;;;;;;5038961;28;20024;-77
2023/06/07 02:04:35;;;;;;;17.98;13.02;;;;;;;;;;5039637;28;20028;-78
2023/06/07 02:07:05;;;;;;;17.10;13.18;;;;;;;;;;5039078;28;20031;-78
2023/06/07 02:09:35;;;;;;;14.85;12.35;;;;;;;;;;5057485;28;20119;-78
2023/06/07 02:12:01;;;;;;;16.13;12.43;;;;;;;;;;5056943;28;20021;-78
2023/06/07 02:14:27;;;;;;;15.18;13.20;;;;;;;;;;5056699;28;20112;-78
2023/06/07 02:16:52;;;;;;;16.52;13.38;;;;;;;;;;5057049;28;20053;-78
2023/06/07 02:19:19;;;;;;;15.15;12.40;;;;;;;;;;5056862;28;20032;-78
2023/06/07 02:21:44;;;;;;;18.65;13.45;;;;;;;;;;5056925;28;20064;-77
2023/06/07 02:24:10;;;;;;;17.75;13.35;;;;;;;;;;5056752;28;20025;-78
2023/06/07 02:26:36;;;;;;;17.02;14.02;;;;;;;;;;5056671;28;20395;-78
2023/06/07 02:29:03;;;;;;;16.55;14.00;;;;;;;;;;5039491;28;20115;-78
2023/06/07 02:31:28;;;;;;;17.05;14.05;;;;;;;;;;5056716;28;20044;-78
2023/06/07 02:33:53;;;;;;;19.85;14.65;;;;;;;;;;5056142;28;20036;-78
2023/06/07 02:36:22;;;;;;;20.43;14.50;;;;;;;;;;5056173;28;20440;-78
2023/06/07 02:38:48;;;;;;;19.75;14.38;;;;;;;;;;5056375;28;20293;-78
2023/06/07 02:41:13;;;;;;;21.70;14.65;;;;;;;;;;5056651;28;20025;-78
2023/06/07 02:43:38;;;;;;;23.02;17.77;;;;;;;;;;5037713;28;20013;-76
2023/06/07 02:46:04;;;;;;;25.35;17.95;;;;;;;;;;5036947;28;20052;-76
2023/06/07 02:48:29;;;;;;;23.25;17.45;;;;;;;;;;5054648;28;20094;-76
2023/06/07 02:50:54;;;;;;;25.15;17.15;;;;;;;;;;5036787;28;20079;-76
2023/06/07 02:53:20;;;;;;;20.98;16.40;;;;;;;;;;5054857;28;20476;-77
2023/06/07 02:55:45;;;;;;;24.30;16.27;;;;;;;;;;5054947;28;20029;-77
2023/06/07 02:58:10;;;;;;;21.48;15.65;;;;;;;;;;5053793;28;20261;-77
2023/06/07 03:00:35;;;;;;;20.17;15.47;;;;;;;;;;5037448;28;20050;-77
2023/06/07 03:03:01;;;;;;;19.50;15.17;;;;;;;;;;5037988;28;20286;-77
2023/06/07 03:05:26;;;;;;;21.07;15.03;;;;;;;;;;5054654;28;20744;-77
2023/06/07 03:07:52;;;;;;;19.83;14.73;;;;;;;;;;5054763;28;20621;-77
2023/06/07 03:10:17;;;;;;;19.30;15.30;;;;;;;;;;5054700;28;20033;-77
2023/06/07 03:12:43;;;;;;;17.77;14.02;;;;;;;;;;5054481;28;20025;-77
2023/06/07 03:15:08;;;;;;;15.90;13.23;;;;;;;;;;5054599;28;20029;-77
2023/06/07 03:17:33;;;;;;;20.25;14.10;;;;;;;;;;5054807;28;20269;-77
2023/06/07 03:20:00;;;;;;;16.30;13.80;;;;;;;;;;5054778;28;20392;-77
2023/06/07 03:22:26;;;;;;;17.15;13.98;;;;;;;;;;5054155;28;20806;-77
2023/06/07 03:24:54;;;;;;;18.05;13.20;;;;;;;;;;5053875;28;20029;-77
2023/06/07 03:27:22;;;;;;;17.33;13.50;;;;;;;;;;5054271;28;20020;-77
2023/06/07 03:29:47;;;;;;;17.95;13.55;;;;;;;;;;5054112;28;20021;-77
2023/06/07 03:32:12;;;;;;;18.70;13.75;;;;;;;;;;5053712;28;20029;-77
2023/06/07 03:34:41;;;;;;;18.17;13.27;;;;;;;;;;5053894;28;20031;-77
2023/06/07 03:37:06;;;;;;;18.17;13.68;;;;;;;;;;5053209;28;20407;-77
2023/06/07 03:39:32;;;;;;;16.92;13.52;;;;;;;;;;5054162;28;20056;-77
2023/06/07 03:41:57;;;;;;;18.17;13.70;;;;;;;;;;5053823;28;20036;-77
2023/06/07 03:44:22;;;;;;;21.03;13.97;;;;;;;;;;5053726;28;20273;-77
2023/06/07 03:46:48;;;;;;;15.30;13.00;;;;;;;;;;5053851;28;20258;-77
2023/06/07 03:49:13;;;;;;;18.63;14.45;;;;;;;;;;5053805;28;20265;-77
2023/06/07 03:51:38;;;;;;;17.65;14.55;;;;;;;;;;5053930;28;20021;-77
2023/06/07 03:54:04;;;;;;;17.33;13.88;;;;;;;;;;5053721;28;20112;-77
2023/06/07 03:56:29;;;;;;;21.80;14.13;;;;;;;;;;5053548;28;20442;-77
2023/06/07 03:58:55;;;;;;;17.63;13.90;;;;;;;;;;5053558;28;20392;-77
2023/06/07 04:01:21;;;;;;;19.23;13.68;;;;;;;;;;5053368;28;20395;-77
2023/06/07 04:03:46;;;;;;;16.05;13.38;;;;;;;;;;5035406;28;20498;-77
2023/06/07 04:06:12;;;;;;;22.17;14.05;;;;;;;;;;5053217;28;20029;-77
2023/06/07 04:08:37;;;;;;;19.13;13.63;;;;;;;;;;5052915;28;20027;-77
2023/06/07 04:11:02;;;;;;;19.73;13.65;;;;;;;;;;5053571;28;20297;-76
2023/06/07 04:13:27;;;;;;;16.30;14.40;;;;;;;;;;5035077;28;20028;-76
2023/06/07 04:15:53;;;;;;;17.03;14.00;;;;;;;;;;5052991;28;20269;-76
2023/06/07 04:18:18;;;;;;;16.13;13.57;;;;;;;;;;5053096;28;20261;-77
2023/06/07 04:20:43;;;;;;;18.30;14.37;;;;;;;;;;5052982;28;20266;-76
2023/06/07 04:23:08;;;;;;;18.63;13.63;;;;;;;;;;5052991;28;20261;-76
2023/06/07 04:25:34;;;;;;;18.60;14.15;;;;;;;;;;5052825;28;20268;-77
2023/06/07 04:28:02;;;;;;;18.67;14.57;;;;;;;;;;5052820;28;20033;-77
2023/06/07 04:30:34;;;;;;;21.25;13.63;;;;;;;;;;5053055;28;20258;-77
2023/06/07 04:33:09;;;;;;;18.05;14.05;;;;;;;;;;5052641;28;20105;-77
2023/06/07 04:35:36;;;;;;;16.58;13.10;;;;;;;;;;5052807;28;20025;-77
2023/06/07 04:38:04;;;;;;;16.65;13.05;;;;;;;;;;5053007;28;20468;-77
2023/06/07 04:40:30;;;;;;;15.05;13.07;;;;;;;;;;5053018;28;20039;-77
2023/06/07 04:43:04;;;;;;;16.10;12.90;;;;;;;;;;5052559;28;20017;-77
2023/06/07 04:45:31;;;;;;;14.57;12.48;;;;;;;;;;5052939;28;20025;-77
2023/06/07 04:47:58;;;;;;;16.70;12.80;;;;;;;;;;5052920;28;20044;-77
2023/06/07 04:50:23;;;;;;;19.17;13.73;;;;;;;;;;5053788;28;20091;-77
2023/06/07 04:52:49;;;;;;;15.18;12.55;;;;;;;;;;5052667;28;20483;-77
2023/06/07 04:55:14;;;;;;;17.33;12.35;;;;;;;;;;5034902;28;20021;-77
2023/06/07 04:57:40;;;;;;;20.02;14.18;;;;;;;;;;5053203;28;20028;-78
2023/06/07 05:00:10;;;;;;;15.77;12.77;;;;;;;;;;5035966;28;20526;-77
2023/06/07 05:02:41;;;;;;;15.13;12.68;;;;;;;;;;5053187;28;20082;-77
2023/06/07 05:05:06;;;;;;;16.35;11.95;;;;;;;;;;5053233;28;20029;-77
2023/06/07 05:07:32;;;;;;;15.93;12.88;;;;;;;;;;5052465;28;20025;-77
2023/06/07 05:09:57;;;;;;;15.75;12.55;;;;;;;;;;5052552;28;20029;-77
2023/06/07 05:12:23;;;;;;;17.65;12.85;;;;;;;;;;5052412;28;20025;-77
2023/06/07 05:14:48;;;;;;;15.95;13.32;;;;;;;;;;5052544;28;20483;-77
2023/06/07 05:17:19;;;;;;;15.77;12.37;;;;;;;;;;5052658;28;20021;-77
2023/06/07 05:19:44;;;;;;;17.52;12.73;;;;;;;;;;5052419;28;20752;-77
2023/06/07 05:22:09;;;;;;;14.95;12.35;;;;;;;;;;5055209;28;20053;-77
2023/06/07 05:24:35;;;;;;;16.85;12.27;;;;;;;;;;5056257;28;20059;-77
2023/06/07 05:27:01;;;;;;;15.23;12.38;;;;;;;;;;5056182;28;20031;-77
2023/06/07 05:29:26;;;;;;;18.20;13.05;;;;;;;;;;5056404;28;20025;-77
2023/06/07 05:31:51;;;;;;;15.47;12.53;;;;;;;;;;5056212;28;20550;-77
2023/06/07 05:34:16;;;;;;;17.10;12.85;;;;;;;;;;5055925;28;20780;-76
2023/06/07 05:36:42;;;;;;;16.80;12.17;;;;;;;;;;5055877;28;20040;-76
2023/06/07 05:39:07;;;;;;;17.58;12.48;;;;;;;;;;5056233;28;20318;-77
2023/06/07 05:41:32;;;;;;;16.38;12.32;;;;;;;;;;5056142;28;20507;-76
2023/06/07 05:43:58;;;;;;;16.08;12.52;;;;;;;;;;5056074;28;20159;-76
2023/06/07 05:46:23;;;;;;;15.80;12.20;;;;;;;;;;5055863;28;20033;-77
2023/06/07 05:48:48;;;;;;;15.30;12.03;;;;;;;;;;5056045;28;20029;-77
2023/06/07 05:51:14;;;;;;;16.77;12.00;;;;;;;;;;5037711;28;20745;-77
2023/06/07 05:53:39;;;;;;;17.33;12.75;;;;;;;;;;5055687;28;20784;-77
2023/06/07 05:56:05;;;;;;;16.60;11.52;;;;;;;;;;5055751;28;20078;-77
2023/06/07 05:58:31;;;;;;;17.67;11.80;;;;;;;;;;5037675;28;20021;-77
2023/06/07 06:00:58;;;;;;;16.85;11.85;;;;;;;;;;5037664;28;20025;-76
2023/06/07 06:03:23;;;;;;;18.45;11.95;;;;;;;;;;5055878;28;20128;-75
2023/06/07 06:05:48;;;;;;;16.03;11.73;;;;;;;;;;5055706;28;20495;-77
2023/06/07 06:08:15;;;;;;;14.80;12.30;;;;;;;;;;5055703;28;20596;-77
2023/06/07 06:10:44;;;;;;;18.73;10.93;;;;;;;;;;5055349;28;20250;-77
2023/06/07 06:13:09;;;;;;;17.45;12.00;;;;;;;;;;5055288;28;20028;-76
2023/06/07 06:15:35;;;;;;;16.30;11.63;;;;;;;;;;5037359;28;20025;-76
2023/06/07 06:18:00;;;;;;;14.83;11.53;;;;;;;;;;5055095;28;20320;-77
2023/06/07 06:20:25;;;;;;;13.80;10.80;;;;;;;;;;5055123;28;20262;-77
2023/06/07 06:22:50;;;;;;;15.93;11.00;;;;;;;;;;5055227;28;20029;-77
2023/06/07 06:25:15;;;;;;;14.20;11.20;;;;;;;;;;5055232;28;20262;-76
2023/06/07 06:27:41;;;;;;;16.88;11.05;;;;;;;;;;5055395;28;20258;-77
2023/06/07 06:30:08;;;;;;;17.33;11.50;;;;;;;;;;5056110;28;20029;-77
2023/06/07 06:32:33;;;;;;;13.75;11.05;;;;;;;;;;5037638;28;20037;-77
2023/06/07 06:34:58;;;;;;;14.27;11.23;;;;;;;;;;5037446;28;20565;-77
2023/06/07 06:37:24;;;;;;;16.70;10.33;;;;;;;;;;5055561;28;20760;-77
2023/06/07 06:39:51;;;;;;;16.17;10.40;;;;;;;;;;5037370;28;20842;-77
2023/06/07 06:42:16;;;;;;;13.90;11.10;;;;;;;;;;5055513;28;20250;-76
2023/06/07 06:44:42;;;;;;;13.43;10.43;;;;;;;;;;5055182;28;20036;-78
2023/06/07 06:47:07;;;;;;;21.63;10.77;;;;;;;;;;5055039;28;20040;-77
2023/06/07 06:49:32;;;;;;;15.02;10.68;;;;;;;;;;5054835;28;20107;-75
2023/06/07 06:51:58;;;;;;;15.93;10.50;;;;;;;;;;5054771;28;20391;-76
2023/06/07 06:54:23;;;;;;;14.37;10.83;;;;;;;;;;5054475;28;20258;-77
2023/06/07 06:56:48;;;;;;;16.87;11.80;;;;;;;;;;5055966;28;20323;-77
2023/06/07 06:59:13;;;;;;;13.53;11.10;;;;;;;;;;5054829;28;20250;-78
2023/06/07 07:01:44;;;;;;;14.35;10.82;;;;;;;;;;5037921;28;20292;-77
2023/06/07 07:04:09;;;;;;;17.38;11.57;;;;;;;;;;5054473;28;20032;-78
2023/06/07 07:06:34;;;;;;;17.63;10.97;;;;;;;;;;5057220;28;20033;-79
2023/06/07 07:09:00;;;;;;;16.90;11.13;;;;;;;;;;5057983;28;20261;-80
2023/06/07 07:11:25;;;;;;;15.97;10.30;;;;;;;;;;5057930;28;20025;-78
2023/06/07 07:13:51;;;;;;;14.98;9.98;;;;;;;;;;5041296;28;20270;-79
2023/06/07 07:16:16;;;;;;;16.03;10.70;;;;;;;;;;5055533;28;20029;-76
2023/06/07 07:18:41;;;;;;;12.35;9.98;;;;;;;;;;5037285;28;20307;-77
2023/06/07 07:21:07;;;;;;;12.87;10.00;;;;;;;;;;5057284;28;20033;-78
2023/06/07 07:23:32;;;;;;;17.63;11.10;;;;;;;;;;5059702;28;20254;-79
2023/06/07 07:25:57;;;;;;;15.73;10.60;;;;;;;;;;5056444;28;20275;-77
2023/06/07 07:28:22;;;;;;;13.07;10.30;;;;;;;;;;5058099;28;20265;-78
2023/06/07 07:30:48;;;;;;;14.05;10.32;;;;;;;;;;5056063;28;20250;-78
2023/06/07 07:33:13;;;;;;;14.60;9.87;;;;;;;;;;5055676;28;20025;-77
2023/06/07 07:35:38;;;;;;;14.93;10.02;;;;;;;;;;5055180;28;20273;-77
2023/06/07 07:38:06;;;;;;;17.83;10.10;;;;;;;;;;5053725;28;20031;-78
2023/06/07 07:40:31;;;;;;;16.20;10.57;;;;;;;;;;5053685;28;20272;-77
2023/06/07 07:42:56;;;;;;;16.13;10.73;;;;;;;;;;5053908;28;20013;-77
2023/06/07 07:45:22;;;;;;;17.60;9.77;;;;;;;;;;5053273;28;20051;-77
2023/06/07 07:47:47;;;;;;;14.07;10.47;;;;;;;;;;5035821;28;20324;-77
2023/06/07 07:50:13;;;;;;;15.80;10.90;;;;;;;;;;5053521;28;20260;-77
2023/06/07 07:52:38;;;;;;;12.13;9.70;;;;;;;;;;5054105;28;20274;-76
2023/06/07 07:55:05;;;;;;;14.13;9.83;;;;;;;;;;5054025;28;20079;-77
2023/06/07 07:57:30;;;;;;;15.10;9.82;;;;;;;;;;5056026;28;20805;-78
2023/06/07 07:59:55;;;;;;;11.77;9.30;;;;;;;;;;5056766;28;20153;-77
2023/06/07 08:02:21;;;;;;;13.18;9.82;;;;;;;;;;5053643;28;20296;-77
2023/06/07 08:04:46;;;;;;;14.10;9.00;;;;;;;;;;5035498;28;20171;-77
2023/06/07 08:07:15;;;;;;;17.43;9.63;;;;;;;;;;5038329;28;20032;-78
2023/06/07 08:09:41;;;;;;;13.68;9.18;;;;;;;;;;5056156;28;20253;-78
2023/06/07 08:12:07;;;;;;;16.50;9.93;;;;;;;;;;5054460;28;20476;-77
2023/06/07 08:14:32;;;;;;;12.30;9.48;;;;;;;;;;5053173;28;20033;-77
2023/06/07 08:16:57;;;;;;;15.83;9.00;;;;;;;;;;5053992;28;20526;-76
2023/06/07 08:19:22;;;;;;;14.17;9.30;;;;;;;;;;5054735;28;20625;-77
2023/06/07 08:21:47;;;;;;;13.43;9.83;;;;;;;;;;5053511;28;20738;-77
2023/06/07 08:24:13;;;;;;;13.38;9.93;;;;;;;;;;5035973;28;20680;-76
2023/06/07 08:26:38;;;;;;;11.48;9.38;;;;;;;;;;5053102;28;20112;-77
2023/06/07 08:29:04;;;;;;;14.03;9.83;;;;;;;;;;5053309;28;20075;-77
2023/06/07 08:31:30;;;;;;;14.73;10.10;;;;;;;;;;5053144;28;20777;-77
2023/06/07 08:33:55;;;;;;;15.38;9.82;;;;;;;;;;5035409;28;20029;-77
2023/06/07 08:36:21;;;;;;;13.23;10.43;;;;;;;;;;5053368;28;20106;-77
2023/06/07 08:38:46;;;;;;;21.90;10.63;;;;;;;;;;5055074;28;20258;-75
2023/06/07 08:41:11;;;;;;;16.33;10.18;;;;;;;;;;5036627;28;20274;-77
2023/06/07 08:43:37;;;;;;;14.73;10.90;;;;;;;;;;5053386;28;20029;-78
2023/06/07 08:46:04;;;;;;;18.23;10.70;;;;;;;;;;5034890;28;20033;-77
2023/06/07 08:48:33;;;;;;;21.70;10.27;;;;;;;;;;5052876;28;20082;-77
2023/06/07 08:51:01;;;;;;;14.10;10.60;;;;;;;;;;5035758;28;20032;-77
2023/06/07 08:53:33;;;;;;;15.05;10.02;;;;;;;;;;5053918;28;20028;-77
2023/06/07 08:55:58;;;;;;;13.20;9.65;;;;;;;;;;5056910;28;20032;-77
2023/06/07 08:58:25;;;;;;;14.80;9.43;;;;;;;;;;5059674;28;20344;-75
2023/06/07 09:00:51;;;;;;;18.88;9.93;;;;;;;;;;5059448;28;20025;-75
2023/06/07 09:03:16;;;;;;;16.17;9.38;;;;;;;;;;5059176;28;20048;-75
2023/06/07 09:05:42;;;;;;;13.93;9.93;;;;;;;;;;5059015;28;20021;-76
2023/06/07 09:08:07;;;;;;;10.88;9.73;;;;;;;;;;5059551;28;20021;-75
2023/06/07 09:10:32;;;;;;;14.87;10.20;;;;;;;;;;5059909;28;20021;-75
2023/06/07 09:12:57;;;;;;;13.60;9.07;;;;;;;;;;5060519;28;20372;-76
2023/06/07 09:15:23;;;;;;;15.27;9.95;;;;;;;;;;5042663;28;20289;-76
2023/06/07 09:17:55;;;;;;;11.38;9.60;;;;;;;;;;5059853;28;20035;-76
2023/06/07 09:20:23;;;;;;;17.70;11.10;;;;;;;;;;5043131;28;20016;-76
2023/06/07 09:23:08;;;;;;;16.58;10.48;;;;;;;;;;5060004;28;20349;-74
2023/06/07 09:25:34;;;;;;;17.45;10.65;;;;;;;;;;5059291;28;20028;-75
2023/06/07 09:28:02;;;;;;;13.50;10.27;;;;;;;;;;5042661;28;20057;-76
2023/06/07 09:30:27;;;;;;;15.93;10.13;;;;;;;;;;5060180;28;20021;-76
2023/06/07 09:32:53;;;;;;;12.20;9.53;;;;;;;;;;5060455;28;20033;-76
2023/06/07 09:35:19;;;;;;;14.40;10.48;;;;;;;;;;5060227;28;20266;-76
2023/06/07 09:37:45;;;;;;;14.55;10.48;;;;;;;;;;5041721;28;20056;-77
2023/06/07 09:40:11;;;;;;;13.05;10.00;;;;;;;;;;5041338;28;20029;-76
2023/06/07 09:42:36;;;;;;;12.80;9.35;;;;;;;;;;5059422;28;20143;-76
2023/06/07 09:45:15;;;;;;;11.43;10.07;;;;;;;;;;5060295;28;20028;-76
2023/06/07 09:47:45;;;;;;;15.27;10.40;;;;;;;;;;5058986;28;20118;-76
2023/06/07 09:50:12;;;;;;;16.27;10.57;;;;;;;;;;5060249;28;20492;-76
2023/06/07 09:52:37;;;;;;;16.55;10.43;;;;;;;;;;5042441;28;20096;-75
2023/06/07 09:55:06;;;;;;;16.45;9.88;;;;;;;;;;5058113;28;20025;-75
2023/06/07 09:57:33;;;;;;;19.27;9.43;;;;;;;;;;5041981;28;20020;-75
2023/06/07 10:00:07;;;;;;;14.85;9.38;;;;;;;;;;5059365;28;20028;-75
2023/06/07 10:02:32;;;;;;;11.63;9.07;;;;;;;;;;5041216;28;20023;-74
2023/06/07 10:04:59;;;;;;;13.25;9.30;;;;;;;;;;5059676;28;20120;-75
2023/06/07 10:07:27;;;;;;;11.90;9.48;;;;;;;;;;5040927;28;20028;-75
2023/06/07 10:09:53;;;;;;;12.82;9.88;;;;;;;;;;5059131;28;20032;-76
2023/06/07 10:12:22;;;;;;;10.63;8.43;;;;;;;;;;5058783;28;20040;-75
2023/06/07 10:14:47;;;;;;;11.82;8.85;;;;;;;;;;5058681;28;20570;-75
2023/06/07 10:17:14;;;;;;;12.65;9.38;;;;;;;;;;5058448;28;20028;-75
2023/06/07 10:19:52;;;;;;;12.27;8.82;;;;;;;;;;5057671;28;20055;-75
2023/06/07 10:22:26;;;;;;;17.95;9.52;;;;;;;;;;5041434;28;20067;-76
2023/06/07 10:25:10;;;;;;;11.77;7.60;;;;;;;;;;5058933;28;20192;-76
2023/06/07 10:27:50;;;;;;;20.75;11.77;;;;;;;;;;5057968;28;20025;-76
2023/06/07 10:30:16;;;;;;;12.80;7.30;;;;;;;;;;5041043;28;20045;-76
2023/06/07 10:32:42;;;;;;;10.15;6.90;;;;;;;;;;5059597;28;20090;-75
2023/06/07 10:35:10;;;;;;;10.30;7.45;;;;;;;;;;5040640;28;20098;-75
2023/06/07 10:37:40;;;;;;;11.10;7.60;;;;;;;;;;5058221;28;20017;-75
2023/06/07 10:40:10;;;;;;;15.15;8.60;;;;;;;;;;5040708;28;20111;-75
2023/06/07 10:42:37;;;;;;;8.25;6.20;;;;;;;;;;5058420;28;20104;-76
2023/06/07 10:45:03;;;;;;;10.68;6.85;;;;;;;;;;5058398;28;20025;-76
2023/06/07 10:47:29;;;;;;;32.25;14.27;;;;;;;;;;5059364;28;20074;-77
2023/06/07 10:49:55;;;;;;;10.15;7.70;;;;;;;;;;5041733;28;20028;-76
2023/06/07 10:52:22;;;;;;;14.40;9.35;;;;;;;;;;5060045;28;20025;-77
2023/06/07 10:54:48;;;;;;;10.75;7.72;;;;;;;;;;5058988;28;20396;-77
2023/06/07 10:57:13;;;;;;;13.23;8.73;;;;;;;;;;5040143;28;20027;-76
2023/06/07 10:59:39;;;;;;;18.73;11.60;;;;;;;;;;5040396;28;20400;-76
2023/06/07 11:02:21;;;;;;;11.32;7.80;;;;;;;;;;5059512;28;20039;-76
2023/06/07 11:04:49;;;;;;;12.50;7.50;;;;;;;;;;5058740;28;20100;-77
2023/06/07 11:07:30;;;;;;;14.70;8.05;;;;;;;;;;5040948;28;20029;-76
2023/06/07 11:10:07;;;;;;;10.55;8.05;;;;;;;;;;5059024;28;20052;-77
2023/06/07 11:12:35;;;;;;;11.05;7.35;;;;;;;;;;5058347;28;20036;-77
2023/06/07 11:15:20;;;;;;;12.68;7.30;;;;;;;;;;5059585;28;20025;-75
2023/06/07 11:17:53;;;;;;;17.13;7.93;;;;;;;;;;5058699;28;20052;-76
2023/06/07 11:20:37;;;;;;;12.80;7.07;;;;;;;;;;5040553;28;20466;-76
2023/06/07 11:23:24;;;;;;;11.88;6.65;;;;;;;;;;5058055;28;20025;-76
2023/06/07 11:26:06;;;;;;;10.68;7.30;;;;;;;;;;5039555;28;20041;-75
2023/06/07 11:28:32;;;;;;;17.02;8.88;;;;;;;;;;5039926;28;20108;-75
2023/06/07 11:30:58;;;;;;;9.40;7.38;;;;;;;;;;5038710;28;20022;-75
2023/06/07 11:33:25;;;;;;;11.57;7.50;;;;;;;;;;5056604;28;20404;-76
2023/06/07 11:35:51;;;;;;;10.40;7.00;;;;;;;;;;5056691;28;20082;-75
2023/06/07 11:38:16;;;;;;;11.63;6.75;;;;;;;;;;5057432;28;20104;-75
2023/06/07 11:40:42;;;;;;;10.27;7.00;;;;;;;;;;5039342;28;20029;-77
2023/06/07 11:43:10;;;;;;;14.50;7.32;;;;;;;;;;5058467;28;20017;-81
2023/06/07 11:45:36;;;;;;;11.98;6.70;;;;;;;;;;5041087;28;20025;-80
2023/06/07 11:48:02;;;;;;;10.68;6.35;;;;;;;;;;5060123;28;20032;-79
2023/06/07 11:50:27;;;;;;;7.72;6.32;;;;;;;;;;5059862;28;20060;-73
2023/06/07 11:52:53;;;;;;;11.60;7.10;;;;;;;;;;5054193;28;20480;-71
2023/06/07 11:55:18;;;;;;;13.50;6.72;;;;;;;;;;5053771;28;20070;-72
2023/06/07 11:57:47;;;;;;;10.77;7.00;;;;;;;;;;5053898;28;20154;-72
2023/06/07 12:00:17;;;;;;;11.02;6.93;;;;;;;;;;5053781;28;20763;-72
2023/06/07 12:02:43;;;;;;;11.50;6.85;;;;;;;;;;5036429;28;20107;-72
2023/06/07 12:05:11;;;;;;;8.77;6.78;;;;;;;;;;5053850;28;20113;-72
2023/06/07 12:07:39;;;;;;;16.25;6.80;;;;;;;;;;5054508;28;20495;-72
2023/06/07 12:10:08;;;;;;;11.60;6.80;;;;;;;;;;5054097;28;20021;-72
2023/06/07 12:12:34;;;;;;;13.52;6.00;;;;;;;;;;5053694;28;20036;-72
2023/06/07 12:15:06;;;;;;;13.52;6.38;;;;;;;;;;5035805;28;20063;-73
2023/06/07 12:17:35;;;;;;;8.65;6.43;;;;;;;;;;5053369;28;20025;-72
2023/06/07 12:20:11;;;;;;;8.95;6.30;;;;;;;;;;5052288;28;20116;-72
2023/06/07 12:22:40;;;;;;;11.07;6.43;;;;;;;;;;5054252;28;20088;-72
2023/06/07 12:25:10;;;;;;;7.38;6.03;;;;;;;;;;5035986;28;20053;-73
2023/06/07 12:27:37;;;;;;;10.90;6.40;;;;;;;;;;5054052;28;20040;-73
2023/06/07 12:30:06;;;;;;;9.40;6.78;;;;;;;;;;5035752;28;20025;-77
2023/06/07 12:32:31;;;;;;;8.35;5.95;;;;;;;;;;5036275;28;20025;-72
2023/06/07 12:35:06;;;;;;;12.02;6.65;;;;;;;;;;5053511;28;20434;-72
2023/06/07 12:37:35;;;;;;;9.90;6.40;;;;;;;;;;5053580;28;20104;-72
2023/06/07 12:40:02;;;;;;;9.27;6.30;;;;;;;;;;5053412;28;20025;-73
2023/06/07 12:42:27;;;;;;;9.27;6.47;;;;;;;;;;5053241;28;20363;-73
2023/06/07 12:44:54;;;;;;;12.15;6.15;;;;;;;;;;5052891;28;20021;-74
2023/06/07 12:47:20;;;;;;;9.88;6.60;;;;;;;;;;5053182;28;20067;-70
2023/06/07 12:49:45;;;;;;;13.45;6.50;;;;;;;;;;5053181;28;20025;-73
2023/06/07 12:52:10;;;;;;;8.83;6.30;;;;;;;;;;5052844;28;20052;-73
2023/06/07 12:54:35;;;;;;;10.10;6.15;;;;;;;;;;5034692;28;20285;-73
2023/06/07 12:57:01;;;;;;;10.10;6.20;;;;;;;;;;5052772;28;20121;-70
2023/06/07 12:59:26;;;;;;;7.57;6.10;;;;;;;;;;5052544;28;20351;-72
2023/06/07 13:01:51;;;;;;;9.77;6.33;;;;;;;;;;5052873;28;20748;-72
2023/06/07 13:04:16;;;;;;;9.40;6.30;;;;;;;;;;5052814;28;20040;-73
2023/06/07 13:06:43;;;;;;;9.00;5.97;;;;;;;;;;5053136;28;20040;-73
2023/06/07 13:09:09;;;;;;;9.15;6.07;;;;;;;;;;5052760;28;20258;-73
2023/06/07 13:11:35;;;;;;;12.10;5.85;;;;;;;;;;5052525;28;20032;-72
2023/06/07 13:14:01;;;;;;;11.63;6.53;;;;;;;;;;5052527;28;20103;-73
2023/06/07 13:16:28;;;;;;;8.30;5.82;;;;;;;;;;5052827;28;20488;-73
2023/06/07 13:18:53;;;;;;;7.65;6.20;;;;;;;;;;5034677;28;20043;-72
2023/06/07 13:21:18;;;;;;;16.17;6.10;;;;;;;;;;5052199;28;20029;-70
2023/06/07 13:23:44;;;;;;;11.27;5.90;;;;;;;;;;5051953;28;20273;-73
2023/06/07 13:26:09;;;;;;;12.25;5.70;;;;;;;;;;5034610;28;20037;-71
2023/06/07 13:28:34;;;;;;;12.47;5.93;;;;;;;;;;5052882;28;20033;-71
2023/06/07 13:31:00;;;;;;;7.65;5.78;;;;;;;;;;5053477;28;20758;-76
2023/06/07 13:33:25;;;;;;;7.82;5.20;;;;;;;;;;5034870;28;20021;-74
2023/06/07 13:35:50;;;;;;;12.90;5.03;;;;;;;;;;5034753;28;20033;-75
2023/06/07 13:38:15;;;;;;;7.13;5.20;;;;;;;;;;5052545;28;20031;-74
2023/06/07 13:40:41;;;;;;;8.23;5.18;;;;;;;;;;5052230;28;20460;-73
2023/06/07 13:43:06;;;;;;;13.70;5.63;;;;;;;;;;5036897;28;20013;-75
2023/06/07 13:45:32;;;;;;;8.65;5.30;;;;;;;;;;5038193;28;20345;-73
2023/06/07 13:47:57;;;;;;;10.75;5.57;;;;;;;;;;5055989;28;20025;-74
2023/06/07 13:50:22;;;;;;;5.97;4.93;;;;;;;;;;5055761;28;20020;-76
2023/06/07 13:52:50;;;;;;;8.40;5.40;;;;;;;;;;5054827;28;20032;-72
2023/06/07 13:55:15;;;;;;;10.18;5.43;;;;;;;;;;5036916;28;20695;-74
2023/06/07 13:57:40;;;;;;;6.95;4.90;;;;;;;;;;5055547;28;20021;-73
2023/06/07 14:00:06;;;;;;;6.70;5.13;;;;;;;;;;5055689;28;20032;-73
2023/06/07 14:02:31;;;;;;;12.10;5.05;;;;;;;;;;5055627;28;20326;-73
2023/06/07 14:04:57;;;;;;;8.15;5.25;;;;;;;;;;5055606;28;20024;-73
2023/06/07 14:07:22;;;;;;;9.53;5.10;;;;;;;;;;5037637;28;20023;-74
2023/06/07 14:09:47;;;;;;;9.68;5.15;;;;;;;;;;5055636;28;20264;-74
2023/06/07 14:12:13;;;;;;;7.22;4.95;;;;;;;;;;5055735;28;20032;-75
2023/06/07 14:14:39;;;;;;;8.85;5.55;;;;;;;;;;5055200;28;20028;-74
2023/06/07 14:17:04;;;;;;;7.25;4.90;;;;;;;;;;5056148;28;20021;-79
2023/06/07 14:19:29;;;;;;;7.22;5.68;;;;;;;;;;5056085;28;20099;-75
2023/06/07 14:21:55;;;;;;;7.30;5.40;;;;;;;;;;5054888;28;20051;-75